sensor_id;sensor_type;location;lat;lon;timestamp;P1;durP1;ratioP1;P2;durP2;ratioP2
51214;SDS011;63849;47.546;19.254;2023-03-01T00:01:27;28.80;;;19.23;;
51214;SDS011;63849;47.546;19.254;2023-03-01T00:03:54;26.83;;;18.23;;
51214;SDS011;63849;47.546;19.254;2023-03-01T00:06:21;27.30;;;18.35;;
51214;SDS011;63849;47.546;19.254;2023-03-01T00:08:47;29.08;;;18.38;;
51214;SDS011;63849;47.546;19.254;2023-03-01T00:13:42;27.67;;;18.33;;
51214;SDS011;63849;47.546;19.254;2023-03-01T00:16:10;26.75;;;19.48;;
51214;SDS011;63849;47.546;19.254;2023-03-01T00:18:39;27.13;;;18.95;;
51214;SDS011;63849;47.546;19.254;2023-03-01T00:21:04;26.67;;;17.85;;
51214;SDS011;63849;47.546;19.254;2023-03-01T00:23:31;24.77;;;17.23;;
51214;SDS011;63849;47.546;19.254;2023-03-01T00:25:59;23.88;;;16.27;;
51214;SDS011;63849;47.546;19.254;2023-03-01T00:28:25;25.67;;;16.20;;
51214;SDS011;63849;47.546;19.254;2023-03-01T00:30:50;21.63;;;14.95;;
51214;SDS011;63849;47.546;19.254;2023-03-01T00:33:16;23.13;;;15.98;;
51214;SDS011;63849;47.546;19.254;2023-03-01T00:35:42;25.45;;;16.38;;
51214;SDS011;63849;47.546;19.254;2023-03-01T00:38:10;25.27;;;17.58;;
51214;SDS011;63849;47.546;19.254;2023-03-01T00:40:38;22.75;;;15.35;;
51214;SDS011;63849;47.546;19.254;2023-03-01T00:43:04;25.58;;;16.38;;
51214;SDS011;63849;47.546;19.254;2023-03-01T00:45:30;24.13;;;15.70;;
51214;SDS011;63849;47.546;19.254;2023-03-01T00:47:58;20.13;;;14.38;;
51214;SDS011;63849;47.546;19.254;2023-03-01T00:50:24;20.63;;;14.93;;
51214;SDS011;63849;47.546;19.254;2023-03-01T00:52:53;23.75;;;15.00;;
51214;SDS011;63849;47.546;19.254;2023-03-01T00:55:20;23.23;;;15.60;;
51214;SDS011;63849;47.546;19.254;2023-03-01T00:57:47;23.30;;;15.20;;
51214;SDS011;63849;47.546;19.254;2023-03-01T01:00:12;24.25;;;15.90;;
51214;SDS011;63849;47.546;19.254;2023-03-01T01:02:38;22.30;;;16.35;;
51214;SDS011;63849;47.546;19.254;2023-03-01T01:05:05;27.90;;;17.92;;
51214;SDS011;63849;47.546;19.254;2023-03-01T01:07:31;23.40;;;16.27;;
51214;SDS011;63849;47.546;19.254;2023-03-01T01:09:58;25.27;;;16.95;;
51214;SDS011;63849;47.546;19.254;2023-03-01T01:12:24;26.33;;;17.48;;
51214;SDS011;63849;47.546;19.254;2023-03-01T01:14:50;25.52;;;16.17;;
51214;SDS011;63849;47.546;19.254;2023-03-01T01:17:16;25.50;;;16.10;;
51214;SDS011;63849;47.546;19.254;2023-03-01T01:19:42;21.65;;;15.07;;
51214;SDS011;63849;47.546;19.254;2023-03-01T01:22:08;19.55;;;14.15;;
51214;SDS011;63849;47.546;19.254;2023-03-01T01:24:34;22.30;;;15.35;;
51214;SDS011;63849;47.546;19.254;2023-03-01T01:27:00;23.73;;;14.82;;
51214;SDS011;63849;47.546;19.254;2023-03-01T01:29:26;21.80;;;15.23;;
51214;SDS011;63849;47.546;19.254;2023-03-01T01:31:52;23.50;;;14.98;;
51214;SDS011;63849;47.546;19.254;2023-03-01T01:34:19;23.88;;;14.85;;
51214;SDS011;63849;47.546;19.254;2023-03-01T01:36:52;21.63;;;14.52;;
51214;SDS011;63849;47.546;19.254;2023-03-01T01:39:19;23.73;;;14.60;;
51214;SDS011;63849;47.546;19.254;2023-03-01T01:41:46;22.83;;;14.95;;
51214;SDS011;63849;47.546;19.254;2023-03-01T01:44:20;28.15;;;16.95;;
51214;SDS011;63849;47.546;19.254;2023-03-01T01:52:00;24.55;;;15.98;;
51214;SDS011;63849;47.546;19.254;2023-03-01T01:54:43;23.05;;;15.40;;
51214;SDS011;63849;47.546;19.254;2023-03-01T01:57:12;22.75;;;15.25;;
51214;SDS011;63849;47.546;19.254;2023-03-01T01:59:42;18.25;;;13.55;;
51214;SDS011;63849;47.546;19.254;2023-03-01T02:02:11;21.92;;;14.55;;
51214;SDS011;63849;47.546;19.254;2023-03-01T02:04:37;22.33;;;15.15;;
51214;SDS011;63849;47.546;19.254;2023-03-01T02:07:10;19.73;;;14.70;;
51214;SDS011;63849;47.546;19.254;2023-03-01T02:09:45;20.63;;;14.55;;
51214;SDS011;63849;47.546;19.254;2023-03-01T02:12:14;18.38;;;13.38;;
51214;SDS011;63849;47.546;19.254;2023-03-01T02:14:42;21.45;;;13.93;;
51214;SDS011;63849;47.546;19.254;2023-03-01T02:17:08;19.40;;;13.95;;
51214;SDS011;63849;47.546;19.254;2023-03-01T02:19:39;22.60;;;14.77;;
51214;SDS011;63849;47.546;19.254;2023-03-01T02:22:24;19.65;;;14.32;;
51214;SDS011;63849;47.546;19.254;2023-03-01T02:27:38;16.95;;;12.80;;
51214;SDS011;63849;47.546;19.254;2023-03-01T02:30:18;19.60;;;13.35;;
51214;SDS011;63849;47.546;19.254;2023-03-01T02:32:46;21.23;;;13.75;;
51214;SDS011;63849;47.546;19.254;2023-03-01T02:35:14;19.20;;;12.70;;
51214;SDS011;63849;47.546;19.254;2023-03-01T02:37:42;20.80;;;13.73;;
51214;SDS011;63849;47.546;19.254;2023-03-01T02:40:13;21.17;;;13.43;;
51214;SDS011;63849;47.546;19.254;2023-03-01T02:45:12;20.23;;;13.13;;
51214;SDS011;63849;47.546;19.254;2023-03-01T02:47:38;21.50;;;13.55;;
51214;SDS011;63849;47.546;19.254;2023-03-01T02:50:10;22.55;;;13.65;;
51214;SDS011;63849;47.546;19.254;2023-03-01T02:53:11;23.15;;;14.50;;
51214;SDS011;63849;47.546;19.254;2023-03-01T02:55:45;21.42;;;14.50;;
51214;SDS011;63849;47.546;19.254;2023-03-01T02:58:10;21.77;;;14.65;;
51214;SDS011;63849;47.546;19.254;2023-03-01T03:00:37;20.38;;;14.43;;
51214;SDS011;63849;47.546;19.254;2023-03-01T03:03:13;21.95;;;15.45;;
51214;SDS011;63849;47.546;19.254;2023-03-01T03:05:40;21.35;;;15.05;;
51214;SDS011;63849;47.546;19.254;2023-03-01T03:08:05;22.77;;;14.93;;
51214;SDS011;63849;47.546;19.254;2023-03-01T03:10:33;23.00;;;15.07;;
51214;SDS011;63849;47.546;19.254;2023-03-01T03:13:03;22.65;;;15.70;;
51214;SDS011;63849;47.546;19.254;2023-03-01T03:15:42;21.75;;;15.20;;
51214;SDS011;63849;47.546;19.254;2023-03-01T03:18:09;22.63;;;15.27;;
51214;SDS011;63849;47.546;19.254;2023-03-01T03:20:38;22.15;;;14.77;;
51214;SDS011;63849;47.546;19.254;2023-03-01T03:23:06;23.45;;;15.80;;
51214;SDS011;63849;47.546;19.254;2023-03-01T03:25:31;21.27;;;14.65;;
51214;SDS011;63849;47.546;19.254;2023-03-01T03:27:57;24.23;;;15.43;;
51214;SDS011;63849;47.546;19.254;2023-03-01T03:30:25;23.08;;;15.25;;
51214;SDS011;63849;47.546;19.254;2023-03-01T03:32:55;25.70;;;15.75;;
51214;SDS011;63849;47.546;19.254;2023-03-01T03:35:28;21.63;;;15.60;;
51214;SDS011;63849;47.546;19.254;2023-03-01T03:37:56;27.40;;;15.88;;
51214;SDS011;63849;47.546;19.254;2023-03-01T03:40:27;23.08;;;15.90;;
51214;SDS011;63849;47.546;19.254;2023-03-01T03:43:04;25.05;;;16.23;;
51214;SDS011;63849;47.546;19.254;2023-03-01T03:45:35;20.83;;;14.68;;
51214;SDS011;63849;47.546;19.254;2023-03-01T03:48:02;21.95;;;14.18;;
51214;SDS011;63849;47.546;19.254;2023-03-01T03:50:29;22.90;;;15.27;;
51214;SDS011;63849;47.546;19.254;2023-03-01T03:52:55;20.48;;;14.07;;
51214;SDS011;63849;47.546;19.254;2023-03-01T03:55:21;21.23;;;13.32;;
51214;SDS011;63849;47.546;19.254;2023-03-01T03:57:48;20.30;;;13.93;;
51214;SDS011;63849;47.546;19.254;2023-03-01T04:00:20;21.38;;;13.68;;
51214;SDS011;63849;47.546;19.254;2023-03-01T04:02:49;20.05;;;14.52;;
51214;SDS011;63849;47.546;19.254;2023-03-01T04:05:16;23.55;;;15.00;;
51214;SDS011;63849;47.546;19.254;2023-03-01T04:07:43;22.02;;;15.55;;
51214;SDS011;63849;47.546;19.254;2023-03-01T04:10:11;25.05;;;15.65;;
51214;SDS011;63849;47.546;19.254;2023-03-01T04:12:41;22.50;;;15.02;;
51214;SDS011;63849;47.546;19.254;2023-03-01T04:15:12;24.33;;;14.50;;
51214;SDS011;63849;47.546;19.254;2023-03-01T04:17:42;20.33;;;14.73;;
51214;SDS011;63849;47.546;19.254;2023-03-01T04:20:13;23.45;;;15.20;;
51214;SDS011;63849;47.546;19.254;2023-03-01T04:22:42;23.17;;;15.50;;
51214;SDS011;63849;47.546;19.254;2023-03-01T04:25:12;22.48;;;15.65;;
51214;SDS011;63849;47.546;19.254;2023-03-01T04:27:39;23.48;;;15.20;;
51214;SDS011;63849;47.546;19.254;2023-03-01T04:30:06;21.73;;;15.32;;
51214;SDS011;63849;47.546;19.254;2023-03-01T04:32:33;22.65;;;15.30;;
51214;SDS011;63849;47.546;19.254;2023-03-01T04:34:59;24.63;;;15.98;;
51214;SDS011;63849;47.546;19.254;2023-03-01T04:37:25;26.17;;;15.93;;
51214;SDS011;63849;47.546;19.254;2023-03-01T04:39:51;21.48;;;15.95;;
51214;SDS011;63849;47.546;19.254;2023-03-01T04:42:17;23.42;;;15.75;;
51214;SDS011;63849;47.546;19.254;2023-03-01T04:44:43;23.00;;;15.52;;
51214;SDS011;63849;47.546;19.254;2023-03-01T04:47:10;21.42;;;14.93;;
51214;SDS011;63849;47.546;19.254;2023-03-01T04:49:36;27.65;;;16.98;;
51214;SDS011;63849;47.546;19.254;2023-03-01T04:52:02;26.23;;;18.42;;
51214;SDS011;63849;47.546;19.254;2023-03-01T04:54:28;27.77;;;18.98;;
51214;SDS011;63849;47.546;19.254;2023-03-01T04:56:58;26.17;;;14.93;;
51214;SDS011;63849;47.546;19.254;2023-03-01T04:59:24;24.42;;;16.45;;
51214;SDS011;63849;47.546;19.254;2023-03-01T05:01:50;22.30;;;16.40;;
51214;SDS011;63849;47.546;19.254;2023-03-01T05:04:17;21.92;;;14.57;;
51214;SDS011;63849;47.546;19.254;2023-03-01T05:06:43;19.33;;;14.27;;
51214;SDS011;63849;47.546;19.254;2023-03-01T05:09:09;21.65;;;13.80;;
51214;SDS011;63849;47.546;19.254;2023-03-01T05:11:36;19.67;;;13.55;;
51214;SDS011;63849;47.546;19.254;2023-03-01T05:14:03;17.33;;;12.60;;
51214;SDS011;63849;47.546;19.254;2023-03-01T05:16:29;18.85;;;13.95;;
51214;SDS011;63849;47.546;19.254;2023-03-01T05:18:57;21.85;;;14.02;;
51214;SDS011;63849;47.546;19.254;2023-03-01T05:21:23;21.75;;;13.95;;
51214;SDS011;63849;47.546;19.254;2023-03-01T05:23:51;19.35;;;13.77;;
51214;SDS011;63849;47.546;19.254;2023-03-01T05:26:18;21.05;;;13.32;;
51214;SDS011;63849;47.546;19.254;2023-03-01T05:28:47;20.77;;;13.30;;
51214;SDS011;63849;47.546;19.254;2023-03-01T05:31:13;18.33;;;14.13;;
51214;SDS011;63849;47.546;19.254;2023-03-01T05:33:39;20.58;;;14.45;;
51214;SDS011;63849;47.546;19.254;2023-03-01T05:36:06;20.88;;;14.05;;
51214;SDS011;63849;47.546;19.254;2023-03-01T05:38:33;21.65;;;14.05;;
51214;SDS011;63849;47.546;19.254;2023-03-01T05:40:59;27.77;;;15.90;;
51214;SDS011;63849;47.546;19.254;2023-03-01T05:43:25;25.70;;;16.40;;
51214;SDS011;63849;47.546;19.254;2023-03-01T05:45:51;26.40;;;15.65;;
51214;SDS011;63849;47.546;19.254;2023-03-01T05:48:17;27.10;;;17.55;;
51214;SDS011;63849;47.546;19.254;2023-03-01T05:50:44;30.13;;;16.33;;
51214;SDS011;63849;47.546;19.254;2023-03-01T05:53:13;35.90;;;20.27;;
51214;SDS011;63849;47.546;19.254;2023-03-01T05:55:44;44.93;;;21.33;;
51214;SDS011;63849;47.546;19.254;2023-03-01T05:58:19;38.20;;;18.88;;
51214;SDS011;63849;47.546;19.254;2023-03-01T06:00:45;31.80;;;17.88;;
51214;SDS011;63849;47.546;19.254;2023-03-01T06:03:13;46.03;;;21.98;;
51214;SDS011;63849;47.546;19.254;2023-03-01T06:05:41;27.67;;;17.73;;
51214;SDS011;63849;47.546;19.254;2023-03-01T06:08:08;23.63;;;14.57;;
51214;SDS011;63849;47.546;19.254;2023-03-01T06:10:35;19.52;;;13.65;;
51214;SDS011;63849;47.546;19.254;2023-03-01T06:13:00;19.98;;;13.35;;
51214;SDS011;63849;47.546;19.254;2023-03-01T06:15:26;25.20;;;15.98;;
51214;SDS011;63849;47.546;19.254;2023-03-01T06:20:54;20.35;;;14.68;;
51214;SDS011;63849;47.546;19.254;2023-03-01T06:23:22;24.17;;;14.40;;
51214;SDS011;63849;47.546;19.254;2023-03-01T06:25:49;21.33;;;14.23;;
51214;SDS011;63849;47.546;19.254;2023-03-01T06:28:15;23.67;;;15.07;;
51214;SDS011;63849;47.546;19.254;2023-03-01T06:30:41;30.35;;;17.70;;
51214;SDS011;63849;47.546;19.254;2023-03-01T06:33:07;25.50;;;16.13;;
51214;SDS011;63849;47.546;19.254;2023-03-01T06:35:33;29.33;;;17.23;;
51214;SDS011;63849;47.546;19.254;2023-03-01T06:38:00;24.45;;;15.43;;
51214;SDS011;63849;47.546;19.254;2023-03-01T06:40:32;23.00;;;16.25;;
51214;SDS011;63849;47.546;19.254;2023-03-01T06:43:00;30.95;;;16.98;;
51214;SDS011;63849;47.546;19.254;2023-03-01T06:45:26;22.92;;;14.77;;
51214;SDS011;63849;47.546;19.254;2023-03-01T06:48:01;26.42;;;16.10;;
51214;SDS011;63849;47.546;19.254;2023-03-01T06:50:33;40.53;;;20.55;;
51214;SDS011;63849;47.546;19.254;2023-03-01T06:53:02;31.85;;;18.58;;
51214;SDS011;63849;47.546;19.254;2023-03-01T06:55:28;25.67;;;15.50;;
51214;SDS011;63849;47.546;19.254;2023-03-01T06:57:55;23.48;;;14.60;;
51214;SDS011;63849;47.546;19.254;2023-03-01T07:00:22;27.02;;;17.20;;
51214;SDS011;63849;47.546;19.254;2023-03-01T07:02:48;20.33;;;13.65;;
51214;SDS011;63849;47.546;19.254;2023-03-01T07:05:16;21.85;;;12.75;;
51214;SDS011;63849;47.546;19.254;2023-03-01T07:07:42;23.05;;;13.50;;
51214;SDS011;63849;47.546;19.254;2023-03-01T07:10:08;21.20;;;13.93;;
51214;SDS011;63849;47.546;19.254;2023-03-01T07:12:34;19.60;;;12.98;;
51214;SDS011;63849;47.546;19.254;2023-03-01T07:15:03;20.30;;;14.07;;
51214;SDS011;63849;47.546;19.254;2023-03-01T07:17:31;16.52;;;11.85;;
51214;SDS011;63849;47.546;19.254;2023-03-01T07:19:57;21.67;;;13.43;;
51214;SDS011;63849;47.546;19.254;2023-03-01T07:22:24;18.52;;;12.68;;
51214;SDS011;63849;47.546;19.254;2023-03-01T07:24:50;19.58;;;13.90;;
51214;SDS011;63849;47.546;19.254;2023-03-01T07:27:18;19.02;;;14.23;;
51214;SDS011;63849;47.546;19.254;2023-03-01T07:29:47;19.35;;;12.65;;
51214;SDS011;63849;47.546;19.254;2023-03-01T07:32:13;17.90;;;13.18;;
51214;SDS011;63849;47.546;19.254;2023-03-01T07:34:39;18.35;;;13.38;;
51214;SDS011;63849;47.546;19.254;2023-03-01T07:37:04;18.05;;;13.40;;
51214;SDS011;63849;47.546;19.254;2023-03-01T07:39:30;23.42;;;14.43;;
51214;SDS011;63849;47.546;19.254;2023-03-01T07:42:02;20.15;;;11.95;;
51214;SDS011;63849;47.546;19.254;2023-03-01T07:44:28;20.98;;;13.05;;
51214;SDS011;63849;47.546;19.254;2023-03-01T07:46:53;23.63;;;14.25;;
51214;SDS011;63849;47.546;19.254;2023-03-01T07:49:21;14.85;;;10.73;;
51214;SDS011;63849;47.546;19.254;2023-03-01T07:51:47;18.23;;;11.90;;
51214;SDS011;63849;47.546;19.254;2023-03-01T07:54:13;19.27;;;11.85;;
51214;SDS011;63849;47.546;19.254;2023-03-01T07:56:40;15.38;;;10.55;;
51214;SDS011;63849;47.546;19.254;2023-03-01T07:59:06;13.88;;;10.32;;
51214;SDS011;63849;47.546;19.254;2023-03-01T08:01:32;16.10;;;10.10;;
51214;SDS011;63849;47.546;19.254;2023-03-01T08:04:01;13.30;;;9.75;;
51214;SDS011;63849;47.546;19.254;2023-03-01T08:06:33;13.27;;;9.95;;
51214;SDS011;63849;47.546;19.254;2023-03-01T08:09:00;14.13;;;11.05;;
51214;SDS011;63849;47.546;19.254;2023-03-01T08:11:26;12.82;;;10.23;;
51214;SDS011;63849;47.546;19.254;2023-03-01T08:13:53;14.77;;;11.02;;
51214;SDS011;63849;47.546;19.254;2023-03-01T08:16:19;17.75;;;11.60;;
51214;SDS011;63849;47.546;19.254;2023-03-01T08:18:45;18.75;;;11.68;;
51214;SDS011;63849;47.546;19.254;2023-03-01T08:21:15;14.02;;;10.43;;
51214;SDS011;63849;47.546;19.254;2023-03-01T08:23:42;14.40;;;10.32;;
51214;SDS011;63849;47.546;19.254;2023-03-01T08:26:27;13.13;;;10.55;;
51214;SDS011;63849;47.546;19.254;2023-03-01T08:28:53;12.38;;;10.00;;
51214;SDS011;63849;47.546;19.254;2023-03-01T08:31:21;14.05;;;10.70;;
51214;SDS011;63849;47.546;19.254;2023-03-01T08:33:54;13.90;;;10.65;;
51214;SDS011;63849;47.546;19.254;2023-03-01T08:36:26;15.93;;;10.65;;
51214;SDS011;63849;47.546;19.254;2023-03-01T08:38:55;13.43;;;10.63;;
51214;SDS011;63849;47.546;19.254;2023-03-01T08:41:27;12.13;;;9.55;;
51214;SDS011;63849;47.546;19.254;2023-03-01T08:43:53;15.55;;;10.80;;
51214;SDS011;63849;47.546;19.254;2023-03-01T08:46:33;12.90;;;9.98;;
51214;SDS011;63849;47.546;19.254;2023-03-01T08:49:12;12.18;;;9.40;;
51214;SDS011;63849;47.546;19.254;2023-03-01T08:51:39;10.82;;;9.10;;
51214;SDS011;63849;47.546;19.254;2023-03-01T08:54:07;12.07;;;9.27;;
51214;SDS011;63849;47.546;19.254;2023-03-01T08:56:37;11.80;;;8.80;;
51214;SDS011;63849;47.546;19.254;2023-03-01T08:59:03;11.30;;;8.75;;
51214;SDS011;63849;47.546;19.254;2023-03-01T09:01:33;12.63;;;8.57;;
51214;SDS011;63849;47.546;19.254;2023-03-01T09:04:01;11.70;;;8.45;;
51214;SDS011;63849;47.546;19.254;2023-03-01T09:06:29;12.60;;;8.60;;
51214;SDS011;63849;47.546;19.254;2023-03-01T09:08:58;11.80;;;8.57;;
51214;SDS011;63849;47.546;19.254;2023-03-01T09:11:25;13.80;;;8.57;;
51214;SDS011;63849;47.546;19.254;2023-03-01T09:13:54;9.85;;;7.78;;
51214;SDS011;63849;47.546;19.254;2023-03-01T09:16:20;12.20;;;8.60;;
51214;SDS011;63849;47.546;19.254;2023-03-01T09:18:51;11.88;;;8.80;;
51214;SDS011;63849;47.546;19.254;2023-03-01T09:21:33;13.57;;;9.00;;
51214;SDS011;63849;47.546;19.254;2023-03-01T09:24:03;11.63;;;8.05;;
51214;SDS011;63849;47.546;19.254;2023-03-01T09:26:29;14.27;;;8.38;;
51214;SDS011;63849;47.546;19.254;2023-03-01T09:28:57;10.15;;;7.63;;
51214;SDS011;63849;47.546;19.254;2023-03-01T09:31:24;11.00;;;7.80;;
51214;SDS011;63849;47.546;19.254;2023-03-01T09:33:51;8.45;;;6.70;;
51214;SDS011;63849;47.546;19.254;2023-03-01T09:36:20;10.15;;;7.35;;
51214;SDS011;63849;47.546;19.254;2023-03-01T09:38:49;10.27;;;6.53;;
51214;SDS011;63849;47.546;19.254;2023-03-01T09:43:51;12.40;;;6.75;;
51214;SDS011;63849;47.546;19.254;2023-03-01T09:46:26;9.30;;;7.38;;
51214;SDS011;63849;47.546;19.254;2023-03-01T09:48:56;8.93;;;7.05;;
51214;SDS011;63849;47.546;19.254;2023-03-01T09:51:31;10.82;;;7.32;;
51214;SDS011;63849;47.546;19.254;2023-03-01T09:54:00;9.32;;;7.57;;
51214;SDS011;63849;47.546;19.254;2023-03-01T09:59:09;12.55;;;8.40;;
51214;SDS011;63849;47.546;19.254;2023-03-01T10:01:48;10.35;;;8.55;;
51214;SDS011;63849;47.546;19.254;2023-03-01T10:09:59;7.82;;;6.60;;
51214;SDS011;63849;47.546;19.254;2023-03-01T10:12:35;10.40;;;7.47;;
51214;SDS011;63849;47.546;19.254;2023-03-01T10:15:18;11.57;;;8.05;;
51214;SDS011;63849;47.546;19.254;2023-03-01T10:17:51;10.82;;;7.80;;
51214;SDS011;63849;47.546;19.254;2023-03-01T10:20:45;9.88;;;7.50;;
51214;SDS011;63849;47.546;19.254;2023-03-01T10:23:18;11.45;;;8.13;;
51214;SDS011;63849;47.546;19.254;2023-03-01T10:25:47;11.35;;;8.35;;
51214;SDS011;63849;47.546;19.254;2023-03-01T10:29:01;13.88;;;8.93;;
51214;SDS011;63849;47.546;19.254;2023-03-01T10:31:35;11.93;;;8.93;;
51214;SDS011;63849;47.546;19.254;2023-03-01T10:37:04;13.27;;;8.90;;
51214;SDS011;63849;47.546;19.254;2023-03-01T10:39:37;14.43;;;9.50;;
51214;SDS011;63849;47.546;19.254;2023-03-01T10:42:26;15.68;;;9.18;;
51214;SDS011;63849;47.546;19.254;2023-03-01T10:51:14;14.45;;;10.05;;
51214;SDS011;63849;47.546;19.254;2023-03-01T10:53:48;14.07;;;10.43;;
51214;SDS011;63849;47.546;19.254;2023-03-01T10:56:22;16.20;;;10.70;;
51214;SDS011;63849;47.546;19.254;2023-03-01T10:59:01;16.27;;;11.27;;
51214;SDS011;63849;47.546;19.254;2023-03-01T11:01:33;13.50;;;10.68;;
51214;SDS011;63849;47.546;19.254;2023-03-01T11:06:31;13.23;;;10.27;;
51214;SDS011;63849;47.546;19.254;2023-03-01T11:09:23;15.07;;;10.82;;
51214;SDS011;63849;47.546;19.254;2023-03-01T11:11:57;13.27;;;10.00;;
51214;SDS011;63849;47.546;19.254;2023-03-01T11:14:30;11.75;;;9.90;;
51214;SDS011;63849;47.546;19.254;2023-03-01T11:19:30;13.43;;;10.00;;
51214;SDS011;63849;47.546;19.254;2023-03-01T11:30:03;9.68;;;7.82;;
51214;SDS011;63849;47.546;19.254;2023-03-01T11:32:45;10.52;;;7.60;;
51214;SDS011;63849;47.546;19.254;2023-03-01T11:35:30;10.25;;;7.40;;
51214;SDS011;63849;47.546;19.254;2023-03-01T11:57:10;9.18;;;6.50;;
51214;SDS011;63849;47.546;19.254;2023-03-01T12:14:17;6.80;;;5.05;;
51214;SDS011;63849;47.546;19.254;2023-03-01T12:17:06;7.45;;;5.40;;
51214;SDS011;63849;47.546;19.254;2023-03-01T12:33:30;8.43;;;6.32;;
51214;SDS011;63849;47.546;19.254;2023-03-01T12:38:50;7.82;;;5.50;;
51214;SDS011;63849;47.546;19.254;2023-03-01T12:44:15;8.40;;;5.43;;
51214;SDS011;63849;47.546;19.254;2023-03-01T12:47:19;9.02;;;6.03;;
51214;SDS011;63849;47.546;19.254;2023-03-01T12:50:14;8.52;;;5.72;;
51214;SDS011;63849;47.546;19.254;2023-03-01T12:53:04;7.60;;;5.68;;
51214;SDS011;63849;47.546;19.254;2023-03-01T12:55:36;9.38;;;6.53;;
51214;SDS011;63849;47.546;19.254;2023-03-01T13:06:41;8.20;;;5.38;;
51214;SDS011;63849;47.546;19.254;2023-03-01T13:09:25;8.65;;;5.15;;
51214;SDS011;63849;47.546;19.254;2023-03-01T13:12:01;7.78;;;5.75;;
51214;SDS011;63849;47.546;19.254;2023-03-01T13:16:56;7.20;;;5.65;;
51214;SDS011;63849;47.546;19.254;2023-03-01T13:19:26;6.65;;;5.72;;
51214;SDS011;63849;47.546;19.254;2023-03-01T13:22:01;8.40;;;6.25;;
51214;SDS011;63849;47.546;19.254;2023-03-01T13:25:12;9.23;;;6.35;;
51214;SDS011;63849;47.546;19.254;2023-03-01T13:27:41;7.80;;;6.80;;
51214;SDS011;63849;47.546;19.254;2023-03-01T13:33:49;8.32;;;6.25;;
51214;SDS011;63849;47.546;19.254;2023-03-01T13:35:56;9.38;;;6.60;;
51214;SDS011;63849;47.546;19.254;2023-03-01T13:52:31;7.10;;;5.03;;
51214;SDS011;63849;47.546;19.254;2023-03-01T13:57:39;8.10;;;6.13;;
51214;SDS011;63849;47.546;19.254;2023-03-01T14:00:24;9.45;;;5.93;;
51214;SDS011;63849;47.546;19.254;2023-03-01T14:03:17;8.13;;;5.88;;
51214;SDS011;63849;47.546;19.254;2023-03-01T14:08:35;7.88;;;6.13;;
51214;SDS011;63849;47.546;19.254;2023-03-01T14:11:44;8.55;;;5.55;;
51214;SDS011;63849;47.546;19.254;2023-03-01T14:14:45;9.60;;;6.63;;
51214;SDS011;63849;47.546;19.254;2023-03-01T14:20:43;10.98;;;6.43;;
51214;SDS011;63849;47.546;19.254;2023-03-01T14:23:22;9.48;;;5.80;;
51214;SDS011;63849;47.546;19.254;2023-03-01T14:25:49;7.30;;;5.22;;
51214;SDS011;63849;47.546;19.254;2023-03-01T14:28:26;11.48;;;5.38;;
51214;SDS011;63849;47.546;19.254;2023-03-01T14:30:57;8.35;;;5.65;;
51214;SDS011;63849;47.546;19.254;2023-03-01T14:33:31;9.77;;;5.78;;
51214;SDS011;63849;47.546;19.254;2023-03-01T14:36:11;10.02;;;6.38;;
51214;SDS011;63849;47.546;19.254;2023-03-01T14:38:44;8.38;;;5.53;;
51214;SDS011;63849;47.546;19.254;2023-03-01T14:41:13;10.88;;;5.85;;
51214;SDS011;63849;47.546;19.254;2023-03-01T14:43:43;11.43;;;6.25;;
51214;SDS011;63849;47.546;19.254;2023-03-01T14:46:22;9.98;;;5.53;;
51214;SDS011;63849;47.546;19.254;2023-03-01T14:49:04;9.88;;;5.00;;
51214;SDS011;63849;47.546;19.254;2023-03-01T14:51:42;14.15;;;5.80;;
51214;SDS011;63849;47.546;19.254;2023-03-01T14:54:25;8.38;;;6.00;;
51214;SDS011;63849;47.546;19.254;2023-03-01T14:56:57;10.63;;;5.78;;
51214;SDS011;63849;47.546;19.254;2023-03-01T14:59:25;8.95;;;6.22;;
51214;SDS011;63849;47.546;19.254;2023-03-01T15:01:57;8.10;;;5.32;;
51214;SDS011;63849;47.546;19.254;2023-03-01T15:04:24;10.77;;;5.57;;
51214;SDS011;63849;47.546;19.254;2023-03-01T15:06:52;10.98;;;6.07;;
51214;SDS011;63849;47.546;19.254;2023-03-01T15:09:20;9.57;;;5.80;;
51214;SDS011;63849;47.546;19.254;2023-03-01T15:11:46;8.75;;;5.10;;
51214;SDS011;63849;47.546;19.254;2023-03-01T15:17:16;13.83;;;6.73;;
51214;SDS011;63849;47.546;19.254;2023-03-01T15:19:54;10.07;;;5.85;;
51214;SDS011;63849;47.546;19.254;2023-03-01T15:22:25;9.20;;;5.43;;
51214;SDS011;63849;47.546;19.254;2023-03-01T15:24:52;12.30;;;6.28;;
51214;SDS011;63849;47.546;19.254;2023-03-01T15:27:20;11.25;;;6.10;;
51214;SDS011;63849;47.546;19.254;2023-03-01T15:29:50;12.20;;;5.70;;
51214;SDS011;63849;47.546;19.254;2023-03-01T15:32:33;9.40;;;6.22;;
51214;SDS011;63849;47.546;19.254;2023-03-01T15:38:26;9.63;;;5.63;;
51214;SDS011;63849;47.546;19.254;2023-03-01T15:40:56;9.07;;;5.65;;
51214;SDS011;63849;47.546;19.254;2023-03-01T15:48:56;12.15;;;6.82;;
51214;SDS011;63849;47.546;19.254;2023-03-01T15:51:27;17.27;;;10.77;;
51214;SDS011;63849;47.546;19.254;2023-03-01T15:54:00;13.35;;;8.15;;
51214;SDS011;63849;47.546;19.254;2023-03-01T15:56:42;9.70;;;7.35;;
51214;SDS011;63849;47.546;19.254;2023-03-01T15:59:10;14.48;;;8.20;;
51214;SDS011;63849;47.546;19.254;2023-03-01T16:01:43;18.60;;;9.32;;
51214;SDS011;63849;47.546;19.254;2023-03-01T16:04:10;16.67;;;9.38;;
51214;SDS011;63849;47.546;19.254;2023-03-01T16:06:52;17.77;;;11.40;;
51214;SDS011;63849;47.546;19.254;2023-03-01T16:09:22;26.40;;;13.13;;
51214;SDS011;63849;47.546;19.254;2023-03-01T16:11:52;23.17;;;13.52;;
51214;SDS011;63849;47.546;19.254;2023-03-01T16:14:18;19.92;;;11.82;;
51214;SDS011;63849;47.546;19.254;2023-03-01T16:16:45;23.35;;;13.52;;
51214;SDS011;63849;47.546;19.254;2023-03-01T16:19:13;16.67;;;10.88;;
51214;SDS011;63849;47.546;19.254;2023-03-01T16:21:40;21.30;;;12.98;;
51214;SDS011;63849;47.546;19.254;2023-03-01T16:24:08;25.65;;;15.93;;
51214;SDS011;63849;47.546;19.254;2023-03-01T16:26:36;31.95;;;18.52;;
51214;SDS011;63849;47.546;19.254;2023-03-01T16:29:03;37.17;;;20.60;;
51214;SDS011;63849;47.546;19.254;2023-03-01T16:31:29;26.42;;;14.80;;
51214;SDS011;63849;47.546;19.254;2023-03-01T16:33:56;19.17;;;11.52;;
51214;SDS011;63849;47.546;19.254;2023-03-01T16:36:23;17.05;;;12.50;;
51214;SDS011;63849;47.546;19.254;2023-03-01T16:38:52;30.27;;;17.90;;
51214;SDS011;63849;47.546;19.254;2023-03-01T16:41:18;29.05;;;20.80;;
51214;SDS011;63849;47.546;19.254;2023-03-01T16:43:47;29.25;;;20.23;;
51214;SDS011;63849;47.546;19.254;2023-03-01T16:46:15;26.92;;;18.48;;
51214;SDS011;63849;47.546;19.254;2023-03-01T16:48:42;24.67;;;17.77;;
51214;SDS011;63849;47.546;19.254;2023-03-01T16:51:08;30.92;;;18.98;;
51214;SDS011;63849;47.546;19.254;2023-03-01T16:53:35;25.30;;;18.65;;
51214;SDS011;63849;47.546;19.254;2023-03-01T16:56:03;42.10;;;31.55;;
51214;SDS011;63849;47.546;19.254;2023-03-01T16:58:31;57.88;;;38.63;;
51214;SDS011;63849;47.546;19.254;2023-03-01T17:01:02;118.90;;;64.00;;
51214;SDS011;63849;47.546;19.254;2023-03-01T17:03:36;151.40;;;75.68;;